Time;durP1;ratioP1;P1;durP2;ratioP2;P2;SDS_P1;SDS_P2;PMS_P1;PMS_P2;Temp;Humidity;BMP_temperature;BMP_pressure;BME280_temperature;BME280_humidity;BME280_pressure;Samples;Min_cycle;Max_cycle;Signal;HPM_P1;HPM_P2
2023/05/15 00:00:40;;;;;;;;;;;11.90;71.20;;;10.95;65.15;96065.41;5092080;28;19926;-82
2023/05/15 00:03:08;;;;;;;;;;;11.90;71.30;;;10.96;65.33;96075.25;5057876;28;19927;-82
2023/05/15 00:05:36;;;;;;;;;;;11.90;71.30;;;10.98;65.63;96074.97;5057873;28;19921;-82
2023/05/15 00:08:05;;;;;;;;;;;11.90;71.30;;;10.97;65.29;96074.16;5074502;28;19920;-82
2023/05/15 00:10:33;;;;;;;;;;;11.90;71.30;;;10.97;65.49;96079.66;5057020;28;20224;-83
2023/05/15 00:13:01;;;;;;;;;;;11.90;71.40;;;10.98;65.42;96074.97;5074428;28;19926;-83
2023/05/15 00:15:30;;;;;;;;;;;11.90;71.40;;;10.98;65.15;96086.78;5057744;28;20115;-82
2023/05/15 00:17:59;;;;;;;;;;;11.90;71.30;;;10.98;65.28;96086.78;5057641;28;19927;-82
2023/05/15 00:20:27;;;;;;;;;;;11.90;71.40;;;10.98;65.36;96092.25;5091512;28;19927;-83
2023/05/15 00:22:55;;;;;;;;;;;11.90;71.50;;;10.99;65.25;96088.41;5057553;28;19920;-83
2023/05/15 00:25:23;;;;;;;;;;;11.90;71.40;;;10.98;65.65;96075.81;5057615;28;19921;-83
2023/05/15 00:27:51;;;;;;;;;;;11.90;71.40;;;10.98;65.59;96073.06;5074257;28;19942;-82
2023/05/15 00:30:19;;;;;;;;;;;11.90;71.40;;;10.97;65.42;96068.69;5056625;28;19926;-83
2023/05/15 00:32:50;;;;;;;;;;;11.90;71.40;;;10.96;65.46;96067.06;5074171;28;19920;-83
2023/05/15 00:35:18;;;;;;;;;;;11.90;71.50;;;10.97;65.72;96063.22;5074151;28;19924;-83
2023/05/15 00:37:47;;;;;;;;;;;11.90;71.60;;;10.97;65.61;96056.94;5057439;28;19927;-83
2023/05/15 00:40:19;;;;;;;;;;;11.90;71.50;;;10.97;65.79;96056.94;5073304;28;19926;-83
2023/05/15 00:42:47;;;;;;;;;;;11.90;71.60;;;10.96;65.48;96060.75;5074125;28;19920;-83
2023/05/15 00:45:15;;;;;;;;;;;11.90;71.60;;;10.99;65.90;96065.66;5072730;28;19926;-83
2023/05/15 00:47:43;;;;;;;;;;;11.90;71.60;;;10.98;65.60;96064.84;5073982;28;20116;-83
2023/05/15 00:50:13;;;;;;;;;;;11.90;71.60;;;10.98;65.90;96059.38;5073033;28;20143;-83
2023/05/15 00:52:42;;;;;;;;;;;11.90;71.60;;;10.99;65.63;96060.19;5056970;28;19920;-83
2023/05/15 00:55:10;;;;;;;;;;;11.90;71.60;;;10.98;65.60;96059.38;5057087;28;19920;-82
2023/05/15 00:57:38;;;;;;;;;;;11.90;71.60;;;10.99;65.41;96066.50;5073748;28;19927;-82
2023/05/15 01:00:09;;;;;;;;;;;11.90;71.50;;;10.97;65.86;96051.44;5073041;28;19920;-82
2023/05/15 01:02:38;;;;;;;;;;;11.90;71.60;;;10.97;65.64;96060.47;5073848;28;19926;-83
2023/05/15 01:05:07;;;;;;;;;;;11.90;71.60;;;10.98;65.89;96058.53;5056914;28;19927;-83
2023/05/15 01:07:40;;;;;;;;;;;11.90;71.60;;;10.96;65.72;96050.63;5073639;28;19927;-82
2023/05/15 01:10:09;;;;;;;;;;;11.90;71.60;;;10.97;65.88;96043.22;5072905;28;20204;-82
2023/05/15 01:12:37;;;;;;;;;;;11.90;71.70;;;10.95;65.55;96040.75;5056956;28;19934;-83
2023/05/15 01:15:06;;;;;;;;;;;11.90;71.60;;;10.96;65.44;96039.66;5056753;28;19920;-83
2023/05/15 01:17:33;;;;;;;;;;;11.90;71.60;;;10.94;65.60;96036.38;5056752;28;19926;-83
2023/05/15 01:20:05;;;;;;;;;;;11.90;71.60;;;10.92;65.76;96037.75;5072796;28;19921;-82
2023/05/15 01:23:03;;;;;;;;;;;11.90;71.60;;;10.90;65.65;96030.63;5056776;28;19920;-83
2023/05/15 01:26:06;;;;;;;;;;;11.90;71.70;;;10.90;65.58;96029.81;5056647;28;19920;-83
2023/05/15 01:28:38;;;;;;;;;;;11.80;71.60;;;10.89;65.64;96028.19;5056169;28;19928;-82
2023/05/15 01:31:10;;;;;;;;;;;11.80;71.60;;;10.89;65.89;96020.78;5073155;28;19926;-82
2023/05/15 01:33:39;;;;;;;;;;;11.80;71.70;;;10.88;65.79;96004.63;5073413;28;19927;-83
2023/05/15 01:36:10;;;;;;;;;;;11.80;71.70;;;10.89;65.79;96009.00;5073176;28;19929;-82
2023/05/15 01:38:38;;;;;;;;;;;11.90;71.80;;;10.88;65.70;96004.63;5055831;28;19927;-82
2023/05/15 01:41:10;;;;;;;;;;;11.80;71.60;;;10.88;65.72;96007.38;5056411;28;19926;-83
2023/05/15 01:43:42;;;;;;;;;;;11.80;71.60;;;10.87;66.01;96005.72;5056522;28;19920;-83
2023/05/15 01:46:10;;;;;;;;;;;11.80;71.70;;;10.87;65.69;96017.50;5056315;28;19926;-83
2023/05/15 01:48:38;;;;;;;;;;;11.80;71.60;;;10.87;66.07;96011.19;5072554;28;19920;-83
2023/05/15 01:51:06;;;;;;;;;;;11.80;71.80;;;10.87;66.08;96003.78;5072635;28;19920;-83
2023/05/15 01:53:34;;;;;;;;;;;11.80;71.70;;;10.87;65.85;95997.50;5073135;28;19926;-83
2023/05/15 01:56:02;;;;;;;;;;;11.80;71.60;;;10.87;65.71;96003.78;5074691;28;19920;-82
2023/05/15 01:58:30;;;;;;;;;;;11.80;71.50;;;10.85;65.83;95994.22;5059394;28;19920;-82
2023/05/15 02:01:00;;;;;;;;;;;11.80;71.60;;;10.84;65.97;95998.06;5076184;28;20067;-82
2023/05/15 02:03:28;;;;;;;;;;;11.80;71.70;;;10.85;65.76;95996.97;5059647;28;19920;-83
2023/05/15 02:05:56;;;;;;;;;;;11.80;71.60;;;10.85;65.96;95977.78;5076409;28;19920;-82
2023/05/15 02:08:27;;;;;;;;;;;11.80;71.70;;;10.84;65.78;95974.22;5094155;28;20234;-82
2023/05/15 02:10:56;;;;;;;;;;;11.80;71.60;;;10.84;66.09;95976.16;5058886;28;19931;-83
2023/05/15 02:13:24;;;;;;;;;;;11.80;71.70;;;10.84;65.62;95970.69;5058644;28;19926;-83
2023/05/15 02:15:52;;;;;;;;;;;11.80;71.60;;;10.84;65.71;95970.69;5076074;28;19920;-82
2023/05/15 02:18:22;;;;;;;;;;;11.80;71.70;;;10.83;65.67;95971.78;5075756;28;20220;-82
2023/05/15 02:20:50;;;;;;;;;;;11.80;71.60;;;10.84;65.79;95965.19;5059476;28;20215;-82
2023/05/15 02:23:19;;;;;;;;;;;11.80;71.70;;;10.83;65.80;95958.06;5076090;28;19943;-82
2023/05/15 02:25:57;;;;;;;;;;;11.80;71.60;;;10.83;65.49;95963.56;5059253;28;19920;-83
2023/05/15 02:28:30;;;;;;;;;;;11.80;71.40;;;10.80;65.72;95956.72;5093529;28;20111;-83
2023/05/15 02:31:00;;;;;;;;;;;11.70;71.60;;;10.79;65.76;95951.50;5059097;28;19943;-83
2023/05/15 02:33:35;;;;;;;;;;;11.70;71.60;;;10.79;65.87;95946.03;5076107;28;19920;-82
2023/05/15 02:36:05;;;;;;;;;;;11.70;71.70;;;10.78;65.58;95944.41;5075909;28;19926;-82
2023/05/15 02:38:37;;;;;;;;;;;11.70;71.60;;;10.77;65.90;95942.78;5075389;28;19942;-82
2023/05/15 02:41:05;;;;;;;;;;;11.70;71.70;;;10.77;66.01;95946.31;5059132;28;19920;-81
2023/05/15 02:43:33;;;;;;;;;;;11.70;71.90;;;10.77;65.95;95940.03;5059115;28;19927;-82
2023/05/15 02:46:02;;;;;;;;;;;11.70;71.90;;;10.78;66.16;95938.94;5059007;28;19926;-82
2023/05/15 02:48:31;;;;;;;;;;;11.70;71.90;;;10.78;65.93;95947.16;5075229;28;20231;-82
2023/05/15 02:50:59;;;;;;;;;;;11.70;71.90;;;10.79;66.18;95948.78;5075509;28;19920;-82
2023/05/15 02:53:27;;;;;;;;;;;11.70;72.00;;;10.81;66.18;95946.56;5059009;28;20221;-82
2023/05/15 02:55:55;;;;;;;;;;;11.70;72.00;;;10.82;66.08;95948.22;5058976;28;19920;-82
2023/05/15 02:58:23;;;;;;;;;;;11.80;72.00;;;10.83;65.15;95952.59;5093188;28;19924;-82
2023/05/15 03:00:51;;;;;;;;;;;11.70;71.40;;;10.85;65.33;95958.63;5058901;28;20111;-82
2023/05/15 03:03:19;;;;;;;;;;;11.70;71.90;;;10.85;65.24;95962.16;5058636;28;19920;-82
2023/05/15 03:05:49;;;;;;;;;;;11.80;71.00;;;10.85;65.10;95967.66;5058852;28;19920;-81
2023/05/15 03:08:17;;;;;;;;;;;11.80;70.70;;;10.85;65.05;95951.22;5057446;28;19927;-82
2023/05/15 03:10:45;;;;;;;;;;;11.80;70.80;;;10.85;65.06;95942.19;5058359;28;19926;-81
2023/05/15 03:13:13;;;;;;;;;;;11.80;71.10;;;10.85;65.44;95933.97;5093085;28;19920;-82
2023/05/15 03:15:41;;;;;;;;;;;11.70;71.10;;;10.83;65.29;95931.53;5075361;28;20021;-82
2023/05/15 03:18:09;;;;;;;;;;;11.70;71.20;;;10.81;65.59;95927.41;5075286;28;20216;-82
2023/05/15 03:20:37;;;;;;;;;;;11.70;71.40;;;10.81;65.74;95921.94;5058024;28;20179;-82
2023/05/15 03:23:06;;;;;;;;;;;11.70;71.50;;;10.80;65.56;95928.50;5058435;28;19927;-82
2023/05/15 03:25:34;;;;;;;;;;;11.70;72.40;;;10.82;65.78;95929.88;5058518;28;19920;-82
2023/05/15 03:28:02;;;;;;;;;;;11.70;71.60;;;10.85;65.46;95932.03;5058381;28;19926;-82
2023/05/15 03:30:30;;;;;;;;;;;11.70;72.30;;;10.86;65.62;95920.00;5074704;28;19920;-82
2023/05/15 03:32:58;;;;;;;;;;;11.80;71.40;;;10.88;65.54;95927.94;5058240;28;19926;-82
2023/05/15 03:35:26;;;;;;;;;;;11.80;71.40;;;10.89;65.64;95929.59;5058408;28;19926;-82
2023/05/15 03:37:54;;;;;;;;;;;11.80;71.30;;;10.93;65.34;95927.09;5074948;28;19927;-82
2023/05/15 03:40:24;;;;;;;;;;;11.80;71.20;;;10.94;64.93;95924.06;5057606;28;20216;-82
2023/05/15 03:42:52;;;;;;;;;;;11.80;70.80;;;10.96;64.86;95918.34;5092752;28;19920;-82
2023/05/15 03:45:21;;;;;;;;;;;11.90;70.90;;;10.96;65.05;95910.94;5058261;28;19927;-82
2023/05/15 03:47:49;;;;;;;;;;;11.90;70.90;;;10.97;65.20;95914.50;5074806;28;19920;-82
2023/05/15 03:50:18;;;;;;;;;;;11.90;70.90;;;10.96;65.13;95908.19;5074358;28;19920;-82
2023/05/15 03:52:47;;;;;;;;;;;11.90;71.20;;;10.98;65.45;95918.84;5057853;28;19920;-82
2023/05/15 03:55:15;;;;;;;;;;;11.90;71.20;;;10.98;65.16;95911.47;5058026;28;19926;-82
2023/05/15 03:57:44;;;;;;;;;;;11.90;71.20;;;10.99;65.53;95913.13;5074715;28;19920;-82
2023/05/15 04:00:14;;;;;;;;;;;11.90;71.30;;;11.01;65.28;95910.91;5037377;28;19920;-83
2023/05/15 04:02:42;;;;;;;;;;;11.90;71.30;;;11.02;65.50;95917.19;5054479;28;19920;-82
2023/05/15 04:05:10;;;;;;;;;;;11.90;71.40;;;11.03;65.38;95919.69;5054795;28;20115;-82
2023/05/15 04:07:38;;;;;;;;;;;11.90;71.30;;;11.04;65.48;95915.81;5054283;28;19920;-82
2023/05/15 04:10:07;;;;;;;;;;;12.00;71.40;;;11.05;65.37;95917.47;5054090;28;19927;-82
2023/05/15 04:12:36;;;;;;;;;;;12.00;71.30;;;11.05;65.48;95920.19;5072094;28;19920;-82
2023/05/15 04:15:27;;;;;;;;;;;12.00;71.40;;;11.07;65.57;95919.94;5037929;28;19921;-82
2023/05/15 04:17:55;;;;;;;;;;;12.00;71.40;;;11.10;66.02;95921.28;5032397;28;19921;-82
2023/05/15 04:20:24;;;;;;;;;;;12.00;71.80;;;11.13;66.16;95932.50;5053728;28;19920;-82
2023/05/15 04:22:52;;;;;;;;;;;12.10;72.20;;;11.16;65.97;95934.69;5054156;28;19921;-83
2023/05/15 04:25:20;;;;;;;;;;;12.10;71.80;;;11.21;65.63;95947.53;5054410;28;19920;-82
2023/05/15 04:27:49;;;;;;;;;;;12.10;71.60;;;11.24;65.69;95952.47;5054130;28;19920;-82
2023/05/15 04:30:17;;;;;;;;;;;12.20;71.40;;;11.28;65.29;95956.28;5053549;28;20247;-82
2023/05/15 04:32:46;;;;;;;;;;;12.20;71.20;;;11.31;65.24;95947.47;5071791;28;19921;-82
2023/05/15 04:35:14;;;;;;;;;;;12.20;71.00;;;11.35;65.00;95953.25;5054256;28;19931;-82
2023/05/15 04:37:44;;;;;;;;;;;12.30;71.00;;;11.38;65.08;95951.84;5037477;28;19950;-82
2023/05/15 04:40:13;;;;;;;;;;;12.30;70.80;;;11.41;65.11;95956.78;5037013;28;19926;-82
2023/05/15 04:42:41;;;;;;;;;;;12.30;70.70;;;11.45;65.04;95957.81;5037284;28;19920;-82
2023/05/15 04:45:09;;;;;;;;;;;12.30;70.60;;;11.49;64.70;95953.44;5053860;28;19927;-83
2023/05/15 04:47:37;;;;;;;;;;;12.40;70.40;;;11.52;64.59;95955.59;5037402;28;19943;-82
2023/05/15 04:50:08;;;;;;;;;;;12.40;70.30;;;11.54;64.53;95961.63;5036810;28;19921;-83
2023/05/15 04:52:36;;;;;;;;;;;12.50;70.20;;;11.55;64.30;95965.19;5053793;28;19926;-83
2023/05/15 04:55:04;;;;;;;;;;;12.50;70.20;;;11.54;64.43;95950.66;5048848;28;19920;-82
2023/05/15 04:57:32;;;;;;;;;;;12.50;70.10;;;11.54;64.79;95947.94;5073963;28;19926;-83
2023/05/15 05:00:00;;;;;;;;;;;12.50;70.20;;;11.55;64.64;95946.81;5073071;28;19920;-82
2023/05/15 05:02:28;;;;;;;;;;;12.50;70.20;;;11.56;64.37;95931.19;5073851;28;19926;-82
2023/05/15 05:04:56;;;;;;;;;;;12.50;70.20;;;11.58;64.48;95927.03;5073806;28;19942;-83
2023/05/15 05:07:26;;;;;;;;;;;12.50;70.10;;;11.60;64.39;95916.63;5073944;28;19926;-83
2023/05/15 05:09:54;;;;;;;;;;;12.50;70.10;;;11.62;64.54;95911.69;5056178;28;19927;-82
2023/05/15 05:12:22;;;;;;;;;;;12.50;70.00;;;11.65;64.30;95904.78;5056781;28;19920;-82
2023/05/15 05:14:50;;;;;;;;;;;12.60;70.00;;;11.67;64.21;95908.06;5056797;28;19920;-82
2023/05/15 05:17:18;;;;;;;;;;;12.60;69.90;;;11.70;64.05;95904.78;5073695;28;19920;-82
2023/05/15 05:19:46;;;;;;;;;;;12.60;69.70;;;11.73;63.85;95908.84;5055990;28;20238;-82
2023/05/15 05:22:14;;;;;;;;;;;12.70;69.70;;;11.75;64.07;95907.47;5056866;28;19926;-82
2023/05/15 05:24:43;;;;;;;;;;;12.70;69.60;;;11.77;63.80;95910.75;5056745;28;20204;-82
2023/05/15 05:27:11;;;;;;;;;;;12.70;69.50;;;11.78;64.15;95901.41;5056872;28;20281;-82
2023/05/15 05:29:39;;;;;;;;;;;12.70;69.40;;;11.82;64.01;95913.47;5072690;28;20376;-82
2023/05/15 05:32:08;;;;;;;;;;;12.80;69.30;;;11.85;63.76;95920.28;5076872;28;19920;-82
2023/05/15 05:34:36;;;;;;;;;;;12.80;69.20;;;11.87;63.58;95915.34;5076993;28;19920;-82
2023/05/15 05:37:04;;;;;;;;;;;12.80;69.10;;;11.88;63.73;95922.47;5076985;28;19920;-82
2023/05/15 05:39:32;;;;;;;;;;;12.80;68.90;;;11.90;63.54;95925.75;5076379;28;19927;-82
2023/05/15 05:42:01;;;;;;;;;;;12.80;69.70;;;11.91;63.28;95937.53;5060148;28;19921;-82
2023/05/15 05:44:29;;;;;;;;;;;12.80;68.80;;;11.90;63.22;95931.22;5076902;28;19926;-82
2023/05/15 05:46:57;;;;;;;;;;;12.80;68.70;;;11.90;62.88;95933.97;5060057;28;19920;-82
2023/05/15 05:49:25;;;;;;;;;;;12.80;68.50;;;11.90;63.15;95935.88;5076081;28;19942;-82
2023/05/15 05:51:53;;;;;;;;;;;12.80;68.30;;;11.89;63.24;95945.22;5059795;28;19920;-82
2023/05/15 05:54:22;;;;;;;;;;;12.80;68.40;;;11.87;63.00;95934.53;5059872;28;19920;-82
2023/05/15 05:56:50;;;;;;;;;;;12.80;68.50;;;11.86;63.35;95930.16;5076814;28;19943;-82
2023/05/15 05:59:19;;;;;;;;;;;12.80;68.60;;;11.86;63.58;95930.16;5058907;28;19920;-82
2023/05/15 06:01:49;;;;;;;;;;;12.80;68.70;;;11.86;63.29;95921.94;5076587;28;19942;-82
2023/05/15 06:04:19;;;;;;;;;;;12.80;68.70;;;11.84;63.20;95921.38;5059904;28;19926;-82
2023/05/15 06:06:48;;;;;;;;;;;12.80;68.70;;;11.81;63.30;95925.53;5094203;28;19935;-82
2023/05/15 06:09:16;;;;;;;;;;;12.70;68.70;;;11.79;63.27;95918.69;5059092;28;19920;-83
2023/05/15 06:11:45;;;;;;;;;;;12.70;68.80;;;11.78;63.28;95900.59;5076487;28;19920;-82
2023/05/15 06:14:13;;;;;;;;;;;12.70;68.70;;;11.76;63.45;95903.63;5059391;28;20242;-82
2023/05/15 06:16:42;;;;;;;;;;;12.70;68.90;;;11.75;63.41;95895.69;5094262;28;19927;-82
2023/05/15 06:19:10;;;;;;;;;;;12.70;69.00;;;11.75;63.76;95884.72;5093412;28;19920;-82
2023/05/15 06:21:38;;;;;;;;;;;12.70;69.00;;;11.73;63.47;95895.97;5059580;28;19926;-83
2023/05/15 06:24:06;;;;;;;;;;;12.60;68.90;;;11.74;63.23;95894.03;5094076;28;19920;-82
2023/05/15 06:26:34;;;;;;;;;;;12.70;69.10;;;11.75;63.67;95895.69;5059468;28;19985;-82
2023/05/15 06:29:03;;;;;;;;;;;12.70;69.20;;;11.74;63.85;95888.56;5075292;28;19920;-82
2023/05/15 06:31:31;;;;;;;;;;;12.70;69.20;;;11.74;63.46;95885.81;5076054;28;20113;-82
2023/05/15 06:34:00;;;;;;;;;;;12.70;69.20;;;11.74;63.72;95877.59;5093892;28;20119;-83
2023/05/15 06:36:28;;;;;;;;;;;12.70;69.20;;;11.74;63.69;95878.44;5055944;28;19927;-82
2023/05/15 06:38:56;;;;;;;;;;;12.70;69.20;;;11.74;63.51;95864.72;5038666;28;20216;-83
2023/05/15 06:41:24;;;;;;;;;;;12.70;69.10;;;11.75;63.69;95871.00;5055712;28;20223;-83
2023/05/15 06:43:53;;;;;;;;;;;12.60;69.10;;;11.75;63.54;95863.59;5055801;28;19921;-83
2023/05/15 06:46:21;;;;;;;;;;;12.70;69.20;;;11.76;63.60;95858.94;5039179;28;19921;-82
2023/05/15 06:48:49;;;;;;;;;;;12.70;69.30;;;11.78;63.74;95853.97;5055181;28;20221;-83
2023/05/15 06:51:19;;;;;;;;;;;12.70;69.30;;;11.79;63.55;95852.88;5039167;28;19926;-83
2023/05/15 06:53:47;;;;;;;;;;;12.70;69.20;;;11.81;63.71;95846.00;5055467;28;19926;-83
2023/05/15 06:56:15;;;;;;;;;;;12.70;69.10;;;11.81;63.59;95846.00;5055582;28;19921;-82
2023/05/15 06:58:43;;;;;;;;;;;12.70;69.10;;;11.83;63.47;95845.69;5054818;28;19920;-83
2023/05/15 07:01:11;;;;;;;;;;;12.70;68.90;;;11.85;62.79;95846.22;5055736;28;19927;-83
2023/05/15 07:03:39;;;;;;;;;;;12.80;68.50;;;11.89;62.30;95840.97;5073362;28;19920;-83
2023/05/15 07:06:07;;;;;;;;;;;12.80;67.90;;;11.91;61.88;95847.84;5055328;28;19920;-83
2023/05/15 07:08:36;;;;;;;;;;;12.80;67.50;;;11.93;61.86;95840.16;5038359;28;19928;-83
2023/05/15 07:11:05;;;;;;;;;;;12.80;67.20;;;11.95;61.99;95840.66;5055518;28;19927;-83
2023/05/15 07:13:33;;;;;;;;;;;12.80;67.50;;;11.97;61.75;95832.16;5055299;28;19921;-83
2023/05/15 07:16:01;;;;;;;;;;;12.90;67.20;;;11.99;61.81;95842.84;5055403;28;19920;-83
2023/05/15 07:18:29;;;;;;;;;;;12.90;67.20;;;12.00;61.55;95834.34;5054609;28;19920;-83
2023/05/15 07:20:57;;;;;;;;;;;12.90;66.80;;;12.02;61.27;95834.06;5055237;28;19921;-83
2023/05/15 07:23:25;;;;;;;;;;;12.90;66.40;;;12.03;61.02;95841.19;5038943;28;19927;-83
2023/05/15 07:25:54;;;;;;;;;;;13.00;66.20;;;12.05;61.09;95841.72;5071905;28;19926;-83
2023/05/15 07:28:22;;;;;;;;;;;13.00;66.40;;;12.06;61.39;95851.59;5038289;28;19927;-83
2023/05/15 07:30:51;;;;;;;;;;;13.00;66.50;;;12.06;60.97;95844.16;5055147;28;19920;-83
2023/05/15 07:33:19;;;;;;;;;;;13.00;66.40;;;12.08;61.11;95857.56;5055019;28;20231;-83
2023/05/15 07:35:47;;;;;;;;;;;13.00;66.20;;;12.10;60.50;95858.09;5054796;28;20428;-82
2023/05/15 07:38:15;;;;;;;;;;;13.00;66.00;;;12.11;60.82;95857.84;5054687;28;19924;-83
2023/05/15 07:40:43;;;;;;;;;;;13.00;66.00;;;12.14;60.80;95864.66;5037964;28;20220;-83
2023/05/15 07:43:13;;;;;;;;;;;13.10;66.10;;;12.16;60.63;95867.94;5054826;28;19928;-83
2023/05/15 07:45:41;;;;;;;;;;;13.10;66.00;;;12.17;60.86;95864.09;5038295;28;19921;-82
2023/05/15 07:48:16;;;;;;;;;;;13.10;66.00;;;12.18;60.80;95871.22;5071654;28;19931;-83
2023/05/15 07:50:44;;;;;;;;;;;13.10;66.00;;;12.20;60.94;95862.69;5037723;28;20112;-83
2023/05/15 07:53:12;;;;;;;;;;;13.10;66.00;;;12.21;60.90;95864.31;5054206;28;19924;-83
2023/05/15 07:55:41;;;;;;;;;;;13.10;66.20;;;12.22;60.75;95864.03;5054478;28;19920;-83
2023/05/15 07:58:08;;;;;;;;;;;13.10;65.90;;;12.22;60.96;95861.28;5038185;28;19921;-83
2023/05/15 08:00:38;;;;;;;;;;;13.10;66.30;;;12.24;61.11;95858.28;5037187;28;19926;-83
2023/05/15 08:03:06;;;;;;;;;;;13.10;66.20;;;12.23;61.16;95843.72;5054752;28;20212;-83
2023/05/15 08:05:34;;;;;;;;;;;13.10;66.20;;;12.23;61.18;95857.44;5054444;28;19921;-83
2023/05/15 08:08:02;;;;;;;;;;;13.20;66.30;;;12.24;61.20;95853.59;5071346;28;19927;-83
2023/05/15 08:10:30;;;;;;;;;;;13.20;66.40;;;12.26;61.46;95847.81;5053890;28;20102;-83
2023/05/15 08:12:58;;;;;;;;;;;13.20;66.50;;;12.26;61.06;95856.84;5054426;28;19927;-83
2023/05/15 08:15:26;;;;;;;;;;;13.20;66.40;;;12.26;61.31;95843.13;5037815;28;19927;-83
2023/05/15 08:17:55;;;;;;;;;;;13.20;66.70;;;12.28;61.39;95843.66;5072222;28;20316;-83
2023/05/15 08:20:23;;;;;;;;;;;13.20;66.60;;;12.30;61.48;95845.31;5037073;28;20116;-82
2023/05/15 08:22:51;;;;;;;;;;;13.20;66.80;;;12.31;61.66;95841.47;5037665;28;19920;-83
2023/05/15 08:25:19;;;;;;;;;;;13.20;66.80;;;12.33;61.77;95840.06;5037818;28;19921;-83
2023/05/15 08:27:47;;;;;;;;;;;13.20;67.00;;;12.34;61.76;95835.38;5037792;28;20119;-83
2023/05/15 08:30:15;;;;;;;;;;;13.30;67.10;;;12.38;61.90;95839.16;5037023;28;19931;-83
2023/05/15 08:32:44;;;;;;;;;;;13.30;67.20;;;12.41;61.68;95838.59;5037592;28;19921;-83
2023/05/15 08:35:14;;;;;;;;;;;13.30;67.10;;;12.44;61.72;95832.53;5054156;28;19927;-83
2023/05/15 08:37:42;;;;;;;;;;;13.30;67.20;;;12.46;62.08;95827.53;5054220;28;19927;-83
2023/05/15 08:40:11;;;;;;;;;;;13.40;67.20;;;12.48;61.94;95828.06;5037035;28;20238;-83
2023/05/15 08:42:43;;;;;;;;;;;13.40;67.20;;;12.51;61.75;95830.25;5071807;28;19927;-83
2023/05/15 08:45:12;;;;;;;;;;;13.40;67.30;;;12.51;62.06;95823.94;5053994;28;19926;-83
2023/05/15 08:47:40;;;;;;;;;;;13.40;67.20;;;12.50;62.04;95820.38;5053908;28;19926;-83
2023/05/15 08:50:11;;;;;;;;;;;13.40;67.10;;;12.49;62.14;95826.16;5036793;28;19920;-83
2023/05/15 08:52:41;;;;;;;;;;;13.40;67.20;;;12.49;61.90;95826.97;5053960;28;20208;-83
2023/05/15 08:55:10;;;;;;;;;;;13.40;67.20;;;12.46;62.13;95822.06;5053796;28;19921;-83
2023/05/15 08:57:38;;;;;;;;;;;13.40;67.30;;;12.45;62.18;95828.69;5037407;28;19921;-83
2023/05/15 09:00:07;;;;;;;;;;;13.40;67.40;;;12.43;61.94;95839.13;5073036;28;19942;-84
2023/05/15 09:02:36;;;;;;;;;;;13.40;67.50;;;12.42;62.32;95842.97;5091663;28;19930;-83
2023/05/15 09:05:05;;;;;;;;;;;13.30;67.60;;;12.41;62.43;95835.84;5072877;28;19920;-83
2023/05/15 09:07:33;;;;;;;;;;;13.30;67.70;;;12.39;62.53;95841.63;5057201;28;20146;-83
2023/05/15 09:10:02;;;;;;;;;;;13.30;67.80;;;12.37;62.32;95832.88;5073087;28;20127;-83
2023/05/15 09:12:33;;;;;;;;;;;13.30;67.80;;;12.36;62.63;95831.25;5057325;28;19920;-83
2023/05/15 09:15:11;;;;;;;;;;;13.30;68.00;;;12.35;62.51;95826.03;5053635;28;19921;-83
2023/05/15 09:17:40;;;;;;;;;;;13.30;68.00;;;12.33;62.57;95828.25;5037152;28;19927;-83
2023/05/15 09:20:11;;;;;;;;;;;13.30;68.10;;;12.33;62.87;95833.75;5036374;28;19920;-83
2023/05/15 09:22:39;;;;;;;;;;;13.30;68.20;;;12.32;62.66;95835.66;5071282;28;20097;-83
2023/05/15 09:25:09;;;;;;;;;;;13.20;68.10;;;12.31;62.77;95835.97;5036964;28;20204;-83
2023/05/15 09:27:41;;;;;;;;;;;13.20;68.20;;;12.31;63.03;95838.72;5036817;28;19920;-83
2023/05/15 09:30:10;;;;;;;;;;;13.20;68.30;;;12.32;63.00;95832.13;5053022;28;19924;-83
2023/05/15 09:32:38;;;;;;;;;;;13.20;68.30;;;12.33;62.92;95829.06;5053246;28;19920;-83
2023/05/15 09:35:08;;;;;;;;;;;13.20;68.40;;;12.33;62.97;95840.06;5036885;28;19927;-83
2023/05/15 09:37:36;;;;;;;;;;;13.30;68.40;;;12.35;63.16;95837.00;5053620;28;19920;-83
2023/05/15 09:40:09;;;;;;;;;;;13.30;68.60;;;12.35;62.89;95826.03;5053093;28;19927;-83
2023/05/15 09:42:37;;;;;;;;;;;13.30;68.50;;;12.36;62.97;95830.41;5053381;28;19920;-83
2023/05/15 09:45:06;;;;;;;;;;;13.30;68.60;;;12.36;62.95;95827.66;5053455;28;19927;-83
2023/05/15 09:47:34;;;;;;;;;;;13.30;68.50;;;12.36;62.93;95819.44;5053188;28;19926;-83
2023/05/15 09:50:02;;;;;;;;;;;13.30;69.40;;;12.37;63.20;95829.28;5052718;28;19921;-83
2023/05/15 09:52:30;;;;;;;;;;;13.30;68.60;;;12.38;63.38;95825.44;5053286;28;19921;-83
2023/05/15 09:54:58;;;;;;;;;;;13.30;68.70;;;12.41;63.29;95824.88;5053450;28;19921;-83
2023/05/15 09:57:27;;;;;;;;;;;13.30;68.80;;;12.42;63.06;95830.06;5036744;28;19921;-83
2023/05/15 09:59:56;;;;;;;;;;;13.30;68.70;;;12.44;63.25;95824.28;5035834;28;20109;-83
2023/05/15 10:02:26;;;;;;;;;;;13.30;68.80;;;12.45;63.50;95820.44;5036471;28;19921;-83
2023/05/15 10:04:55;;;;;;;;;;;13.40;68.80;;;12.48;63.53;95819.84;5053204;28;19921;-83
2023/05/15 10:07:30;;;;;;;;;;;13.40;69.10;;;12.50;63.41;95820.38;5036619;28;19921;-83
2023/05/15 10:09:58;;;;;;;;;;;13.40;68.90;;;12.53;63.59;95824.44;5061864;28;19944;-83
2023/05/15 10:12:28;;;;;;;;;;;13.40;69.10;;;12.54;63.86;95817.84;5073364;28;19942;-83
2023/05/15 10:14:57;;;;;;;;;;;13.40;69.00;;;12.55;63.40;95819.47;5056579;28;19926;-83
2023/05/15 10:17:25;;;;;;;;;;;13.40;68.80;;;12.55;63.28;95814.81;5093166;28;19920;-83
2023/05/15 10:19:53;;;;;;;;;;;13.40;68.60;;;12.55;63.37;95805.75;5059122;28;20242;-83
2023/05/15 10:22:23;;;;;;;;;;;13.40;68.70;;;12.55;63.36;95811.25;5059653;28;19920;-83
2023/05/15 10:24:52;;;;;;;;;;;13.40;68.70;;;12.54;63.12;95807.69;5059889;28;19920;-83
2023/05/15 10:27:20;;;;;;;;;;;13.40;68.60;;;12.53;63.39;95806.06;5059737;28;19920;-83
2023/05/15 10:29:50;;;;;;;;;;;13.40;68.80;;;12.56;63.71;95812.88;5059094;28;20212;-83
2023/05/15 10:32:18;;;;;;;;;;;13.50;69.20;;;12.55;63.79;95820.31;5059600;28;19926;-83
2023/05/15 10:34:46;;;;;;;;;;;13.50;69.30;;;12.58;63.93;95797.78;5059925;28;20237;-83
2023/05/15 10:37:14;;;;;;;;;;;13.50;69.60;;;12.59;64.14;95799.38;5076045;28;19920;-84
2023/05/15 10:39:42;;;;;;;;;;;13.50;69.60;;;12.61;64.66;95796.34;5058861;28;20208;-84
2023/05/15 10:42:10;;;;;;;;;;;13.50;70.30;;;12.63;64.94;95782.31;5059482;28;20234;-83
2023/05/15 10:44:38;;;;;;;;;;;13.50;70.80;;;12.66;64.47;95787.22;5076426;28;19919;-83
2023/05/15 10:47:07;;;;;;;;;;;13.60;70.20;;;12.66;64.25;95785.28;5059839;28;19920;-84
2023/05/15 10:49:35;;;;;;;;;;;13.60;69.80;;;12.68;64.10;95785.00;5075701;28;19920;-83
2023/05/15 10:52:03;;;;;;;;;;;13.60;69.70;;;12.68;64.04;95782.28;5059418;28;19926;-83
2023/05/15 10:54:31;;;;;;;;;;;13.60;69.40;;;12.68;64.03;95777.56;5059682;28;19920;-83
2023/05/15 10:56:59;;;;;;;;;;;13.60;69.30;;;12.66;63.81;95770.75;5059445;28;19926;-84
2023/05/15 10:59:31;;;;;;;;;;;13.60;69.20;;;12.66;64.03;95776.25;5058650;28;19926;-83
2023/05/15 11:02:29;;;;;;;;;;;13.60;69.40;;;12.66;63.80;95776.25;5059622;28;19921;-83
2023/05/15 11:04:59;;;;;;;;;;;13.60;69.40;;;12.66;63.97;95787.22;5061982;28;19920;-82
2023/05/15 11:07:28;;;;;;;;;;;13.60;69.40;;;12.64;63.64;95779.31;5076845;28;19927;-83
2023/05/15 11:09:56;;;;;;;;;;;13.60;69.50;;;12.65;64.04;95780.09;5058709;28;20238;-83
2023/05/15 11:12:24;;;;;;;;;;;13.60;69.50;;;12.64;64.13;95786.72;5059488;28;19920;-83
2023/05/15 11:15:20;;;;;;;;;;;13.60;69.60;;;12.64;64.28;95783.97;5059363;28;19935;-83
2023/05/15 11:18:05;;;;;;;;;;;13.50;69.70;;;12.63;64.15;95787.81;5039444;28;20122;-83
2023/05/15 11:20:38;;;;;;;;;;;13.50;69.70;;;12.63;64.18;95801.53;5055411;28;19926;-83
2023/05/15 11:23:06;;;;;;;;;;;13.50;69.70;;;12.62;64.20;95798.00;5055847;28;19920;-84
2023/05/15 11:25:34;;;;;;;;;;;13.50;70.00;;;12.62;64.51;95797.16;5055822;28;19935;-83